createdAt,value
2019-01-28T00:00:37.908Z,37.89
2019-01-28T00:03:09.861Z,37.79
2019-01-28T00:05:41.753Z,37.90
2019-01-28T00:08:13.531Z,37.68
2019-01-28T00:10:45.305Z,37.91
2019-01-28T00:13:17.062Z,37.88
2019-01-28T00:15:49.407Z,37.63
2019-01-28T00:18:21.442Z,37.86
2019-01-28T00:20:53.334Z,37.94
2019-01-28T00:23:24.907Z,37.67
2019-01-28T00:25:56.737Z,37.89
2019-01-28T00:28:27.484Z,37.88
2019-01-28T00:30:59.314Z,37.56
2019-01-28T00:33:30.879Z,37.70
2019-01-28T00:36:02.746Z,37.71
2019-01-28T00:38:33.937Z,37.63
2019-01-28T00:41:05.745Z,37.91
2019-01-28T00:43:36.484Z,38.03
2019-01-28T00:46:08.314Z,38.10
2019-01-28T00:48:40.370Z,37.95
2019-01-28T00:51:12.075Z,38.01
2019-01-28T00:53:44.773Z,37.72
2019-01-28T00:56:16.714Z,37.55
2019-01-28T00:58:47.491Z,37.66
2019-01-28T01:01:19.314Z,37.45
2019-01-28T01:03:50.987Z,37.25
2019-01-28T01:06:22.841Z,37.00
2019-01-28T01:08:54.592Z,37.30
2019-01-28T01:11:26.305Z,37.21
2019-01-28T01:13:57.904Z,37.21
2019-01-28T01:16:29.386Z,37.50
2019-01-28T01:19:01.069Z,37.34
2019-01-28T01:21:32.795Z,37.26
2019-01-28T01:26:42.278Z,37.53
2019-01-28T01:29:13.841Z,37.65
2019-01-28T01:31:45.593Z,37.47
2019-01-28T01:34:17.318Z,38.34
2019-01-28T01:36:48.887Z,38.34
2019-01-28T01:39:20.756Z,38.06
2019-01-28T01:41:51.447Z,38.30
2019-01-28T01:44:23.045Z,38.17
2019-01-28T01:46:55.291Z,38.12
2019-01-28T01:49:27.305Z,38.17
2019-01-28T01:51:58.865Z,38.12
2019-01-28T01:54:30.383Z,38.22
2019-01-28T01:57:02.366Z,38.22
2019-01-28T01:59:34.305Z,38.50
2019-01-28T02:02:05.858Z,38.59
2019-01-28T02:04:37.377Z,38.35
2019-01-28T02:07:09.064Z,38.43
2019-01-28T02:09:40.753Z,38.12
2019-01-28T02:12:12.386Z,38.47
2019-01-28T02:14:44.065Z,38.71
2019-01-28T02:17:15.737Z,38.57
2019-01-28T02:19:47.744Z,38.29
2019-01-28T02:22:18.456Z,38.78
2019-01-28T02:24:50.313Z,38.31
2019-01-28T02:27:21.977Z,38.02
2019-01-28T02:29:53.786Z,37.78
2019-01-28T02:32:24.469Z,38.26
2019-01-28T02:34:56.313Z,37.89
2019-01-28T02:37:28.322Z,38.95
2019-01-28T02:39:59.926Z,38.14
2019-01-28T02:42:31.672Z,38.74
2019-01-28T02:45:03.401Z,38.31
2019-01-28T02:47:35.310Z,38.31
2019-01-28T02:50:09.815Z,38.83
2019-01-28T02:52:41.496Z,37.90
2019-01-28T02:55:13.309Z,38.51
2019-01-28T02:57:45.313Z,38.55
2019-01-28T03:00:26.629Z,38.75
2019-01-28T03:02:58.370Z,38.96
2019-01-28T03:05:30.081Z,38.96
2019-01-28T03:08:01.814Z,38.52
2019-01-28T03:10:33.618Z,38.33
2019-01-28T03:13:05.771Z,38.71
2019-01-28T03:15:36.528Z,38.71
2019-01-28T03:18:08.313Z,38.93
2019-01-28T03:20:40.510Z,38.51
2019-01-28T03:23:12.550Z,38.50
2019-01-28T03:25:44.321Z,38.50
2019-01-28T03:28:15.822Z,38.51
2019-01-28T03:30:47.604Z,38.65
2019-01-28T03:33:19.325Z,38.67
2019-01-28T03:35:50.840Z,38.67
2019-01-28T03:38:22.636Z,38.26
2019-01-28T03:40:54.386Z,38.70
2019-01-28T03:43:26.074Z,38.70
2019-01-28T03:45:57.753Z,38.58
2019-01-28T03:48:28.450Z,38.62
2019-01-28T03:51:00.322Z,38.37
2019-01-28T03:53:32.313Z,38.78
2019-01-28T03:56:03.861Z,38.74
2019-01-28T03:58:35.633Z,38.50
2019-01-28T04:01:07.593Z,38.31
2019-01-28T04:03:39.302Z,38.68
2019-01-28T04:06:11.376Z,38.68
2019-01-28T04:08:43.316Z,38.92
2019-01-28T04:11:14.843Z,38.77
2019-01-28T04:13:46.580Z,38.92
2019-01-28T04:16:18.633Z,38.75
2019-01-28T04:18:50.350Z,38.81
2019-01-28T04:21:22.474Z,38.81
2019-01-28T04:23:54.077Z,38.78
2019-01-28T04:26:25.783Z,38.98
2019-01-28T04:28:56.469Z,38.79
2019-01-28T04:31:28.758Z,38.61
2019-01-28T04:33:59.479Z,38.79
2019-01-28T04:36:31.327Z,39.13
2019-01-28T04:39:02.881Z,38.96
2019-01-28T04:41:34.786Z,38.44
2019-01-28T04:44:05.473Z,38.56
2019-01-28T04:46:37.312Z,38.51
2019-01-28T04:49:08.835Z,38.45
2019-01-28T04:51:40.640Z,38.86
2019-01-28T04:54:12.444Z,38.00
2019-01-28T04:56:44.320Z,38.00
2019-01-28T04:59:15.981Z,38.04
2019-01-28T05:01:47.731Z,39.05
2019-01-28T05:04:19.597Z,39.32
2019-01-28T05:06:51.321Z,38.90
2019-01-28T05:09:22.932Z,38.90
2019-01-28T05:11:54.803Z,39.29
2019-01-28T05:14:25.508Z,38.65
2019-01-28T05:16:57.284Z,38.90
2019-01-28T05:19:30.716Z,38.81
2019-01-28T05:22:02.661Z,39.28
2019-01-28T05:24:34.641Z,39.00
2019-01-28T05:27:06.551Z,39.00
2019-01-28T05:29:38.324Z,39.06
2019-01-28T05:32:10.321Z,39.09
2019-01-28T05:34:41.887Z,39.28
2019-01-28T05:37:14.312Z,38.34
2019-01-28T05:39:45.848Z,39.14
2019-01-28T05:42:17.611Z,38.95
2019-01-28T05:44:50.163Z,39.23
2019-01-28T05:47:21.883Z,39.23
2019-01-28T05:49:53.794Z,38.95
2019-01-28T05:52:24.484Z,38.52
2019-01-28T05:54:56.314Z,38.99
2019-01-28T05:57:27.818Z,39.06
2019-01-28T05:59:59.418Z,37.74
2019-01-28T06:02:31.496Z,38.72
2019-01-28T06:05:03.305Z,38.84
2019-01-28T06:07:34.893Z,38.85
2019-01-28T06:10:07.783Z,39.14
2019-01-28T06:12:38.486Z,39.11
2019-01-28T06:15:13.730Z,39.09
2019-01-28T06:17:45.631Z,38.77
2019-01-28T06:20:20.771Z,38.48
2019-01-28T06:22:53.311Z,38.48
2019-01-28T06:25:24.863Z,38.95
2019-01-28T06:27:56.766Z,38.95
2019-01-28T06:30:32.411Z,39.26
2019-01-28T06:33:04.074Z,39.02
2019-01-28T06:35:35.758Z,39.10
2019-01-28T06:38:06.469Z,39.03
2019-01-28T06:40:38.914Z,39.08
2019-01-28T06:43:10.851Z,38.02
2019-01-28T06:45:42.757Z,38.97
2019-01-28T06:48:14.782Z,39.20
2019-01-28T06:50:45.588Z,39.02
2019-01-28T06:53:17.302Z,38.95
2019-01-28T06:55:49.025Z,38.95
2019-01-28T06:58:20.833Z,39.26
2019-01-28T07:00:52.590Z,39.18
2019-01-28T07:03:24.106Z,39.05
2019-01-28T07:05:55.447Z,39.23
2019-01-28T07:08:27.312Z,39.23
2019-01-28T07:10:59.275Z,39.27
2019-01-28T07:13:30.832Z,38.98
2019-01-28T07:16:03.078Z,39.06
2019-01-28T07:18:34.761Z,38.76
2019-01-28T07:21:05.436Z,39.00
2019-01-28T07:23:37.279Z,39.53
2019-01-28T07:26:08.985Z,39.14
2019-01-28T07:28:40.691Z,39.11
2019-01-28T07:31:11.470Z,38.36
2019-01-28T07:33:43.258Z,38.49
2019-01-28T07:36:14.882Z,38.84
2019-01-28T07:38:46.742Z,38.95
2019-01-28T07:41:17.475Z,39.11
2019-01-28T07:43:49.303Z,38.43
2019-01-28T07:46:20.840Z,39.10
2019-01-28T07:48:52.410Z,38.75
2019-01-28T07:51:24.071Z,38.90
2019-01-28T07:53:55.773Z,38.34
2019-01-28T07:56:26.451Z,39.00
2019-01-28T07:58:58.417Z,39.12
2019-01-28T08:01:30.088Z,38.96
2019-01-28T08:04:01.722Z,39.10
2019-01-28T08:06:32.618Z,39.19
2019-01-28T08:09:04.536Z,39.32
2019-01-28T08:11:35.597Z,38.75
2019-01-28T08:14:07.757Z,38.66
2019-01-28T08:16:38.465Z,38.66
2019-01-28T08:19:10.305Z,38.60
2019-01-28T08:21:41.878Z,39.09
2019-01-28T08:24:13.775Z,38.84
2019-01-28T08:26:44.465Z,38.70
2019-01-28T08:29:16.307Z,39.02
2019-01-28T08:31:47.809Z,38.98
2019-01-28T08:34:19.377Z,38.67
2019-01-28T08:36:51.074Z,37.95
2019-01-28T08:39:22.800Z,38.63
2019-01-28T08:41:54.405Z,38.54
2019-01-28T08:44:26.070Z,38.19
2019-01-28T08:46:57.729Z,37.67
2019-01-28T08:49:29.346Z,38.15
2019-01-28T08:52:00.816Z,37.92
2019-01-28T08:54:32.609Z,38.32
2019-01-28T08:57:04.457Z,37.87
2019-01-28T08:59:36.313Z,37.87
2019-01-28T09:02:08.135Z,38.16
2019-01-28T09:04:39.754Z,38.55
2019-01-28T09:07:10.473Z,38.48
2019-01-28T09:09:42.302Z,38.60
2019-01-28T09:12:13.977Z,37.79
2019-01-28T09:14:45.735Z,38.05
2019-01-28T09:17:16.508Z,38.01
2019-01-28T09:19:48.305Z,38.12
2019-01-28T09:22:20.767Z,38.38
2019-01-28T09:24:51.656Z,38.38
2019-01-28T09:27:23.407Z,38.07
2019-01-28T09:32:54.863Z,37.94
2019-01-28T09:35:26.395Z,38.04
2019-01-28T09:37:58.067Z,37.53
2019-01-28T09:40:32.831Z,36.76
2019-01-28T09:43:04.619Z,38.23
2019-01-28T09:45:42.307Z,38.00
2019-01-28T09:48:16.782Z,38.00
2019-01-28T09:50:47.446Z,37.73
2019-01-28T09:53:19.305Z,37.34
2019-01-28T09:55:50.802Z,37.91
2019-01-28T09:58:22.606Z,37.81
2019-01-28T10:00:54.767Z,37.95
2019-01-28T10:03:26.678Z,37.95
2019-01-28T10:05:58.373Z,37.61
2019-01-28T10:08:30.103Z,37.61
2019-01-28T10:11:01.757Z,37.67
2019-01-28T10:13:32.468Z,38.07
2019-01-28T10:16:04.310Z,37.90
2019-01-28T10:18:41.754Z,37.85
2019-01-28T10:21:09.362Z,37.64
2019-01-28T10:23:41.362Z,37.64
2019-01-28T10:26:13.054Z,37.98
2019-01-28T10:28:45.297Z,37.47
2019-01-28T10:31:16.818Z,37.29
2019-01-28T10:33:48.585Z,37.79
2019-01-28T10:36:22.737Z,37.25
2019-01-28T10:38:54.305Z,37.25
2019-01-28T10:41:25.806Z,37.66
2019-01-28T10:43:57.593Z,37.50
2019-01-28T10:46:29.276Z,37.51
2019-01-28T10:49:01.302Z,37.51
2019-01-28T10:51:33.298Z,37.38
2019-01-28T10:54:05.423Z,37.40
2019-01-28T10:56:37.366Z,36.62
2019-01-28T11:01:55.018Z,37.31
2019-01-28T11:04:26.752Z,37.25
2019-01-28T11:06:57.508Z,37.04
2019-01-28T11:09:29.348Z,37.28
2019-01-28T11:12:01.754Z,37.28
2019-01-28T11:14:32.519Z,37.35
2019-01-28T11:17:04.341Z,36.71
2019-01-28T11:19:36.303Z,36.71
2019-01-28T11:22:07.972Z,36.86
2019-01-28T11:24:39.894Z,37.42
2019-01-28T11:27:11.805Z,37.40
2019-01-28T11:29:43.862Z,37.45
2019-01-28T11:32:15.865Z,36.81
2019-01-28T11:34:47.824Z,37.45
2019-01-28T11:37:19.773Z,37.30
2019-01-28T11:39:51.475Z,37.19
2019-01-28T11:42:23.312Z,37.41
2019-01-28T11:44:55.024Z,37.36
2019-01-28T11:47:42.418Z,37.30
2019-01-28T11:50:14.796Z,36.86
2019-01-28T11:52:46.462Z,37.21
2019-01-28T11:55:18.296Z,37.33
2019-01-28T11:57:50.259Z,37.34
2019-01-28T12:00:41.706Z,37.40
2019-01-28T12:03:15.419Z,37.44
2019-01-28T12:05:47.260Z,37.36
2019-01-28T12:08:18.820Z,37.17
2019-01-28T12:10:50.493Z,37.25
2019-01-28T12:13:22.567Z,37.06
2019-01-28T12:15:54.362Z,36.92
2019-01-28T12:18:26.774Z,36.92
2019-01-28T12:20:57.649Z,37.03
2019-01-28T12:23:28.700Z,37.00
2019-01-28T12:26:00.451Z,37.04
2019-01-28T12:28:32.302Z,37.08
2019-01-28T12:31:03.899Z,36.74
2019-01-28T12:33:35.749Z,36.75
2019-01-28T12:36:06.460Z,36.92
2019-01-28T12:38:38.292Z,36.84
2019-01-28T12:41:17.388Z,36.88
2019-01-28T12:43:43.769Z,36.68
2019-01-28T12:46:15.394Z,36.58
2019-01-28T12:48:47.373Z,36.58
2019-01-28T12:51:19.045Z,36.70
2019-01-28T12:53:50.773Z,36.68
2019-01-28T12:56:21.498Z,36.88
2019-01-28T12:58:53.302Z,37.05
2019-01-28T13:01:24.865Z,36.67
2019-01-28T13:03:56.750Z,36.79
2019-01-28T13:06:27.531Z,36.96
2019-01-28T13:08:59.301Z,36.93
2019-01-28T13:11:30.841Z,36.93
2019-01-28T13:14:02.589Z,36.92
2019-01-28T13:19:16.062Z,36.99
2019-01-28T13:21:47.749Z,36.94
2019-01-28T13:24:18.475Z,36.82
2019-01-28T13:26:50.297Z,37.26
2019-01-28T13:29:21.901Z,37.13
2019-01-28T13:31:53.713Z,37.05
2019-01-28T13:34:24.443Z,37.08
2019-01-28T13:36:56.024Z,37.15
2019-01-28T13:39:27.745Z,37.28
2019-01-28T13:41:58.934Z,37.12
2019-01-28T13:44:30.689Z,37.16
2019-01-28T13:47:01.464Z,37.01
2019-01-28T13:49:38.220Z,36.93
2019-01-28T13:52:06.702Z,37.00
2019-01-28T13:54:37.470Z,36.89
2019-01-28T13:57:09.311Z,37.18
2019-01-28T13:59:40.848Z,36.92
2019-01-28T14:04:43.310Z,36.94
2019-01-28T14:07:15.046Z,37.06
2019-01-28T14:09:47.742Z,36.83
2019-01-28T14:12:19.457Z,37.50
2019-01-28T14:14:52.302Z,37.95
2019-01-28T14:17:24.308Z,37.93
2019-01-28T14:19:55.988Z,37.69
2019-01-28T14:22:29.886Z,37.84
2019-01-28T14:25:02.403Z,37.63
2019-01-28T14:27:34.301Z,37.43
2019-01-28T14:30:07.051Z,37.73
2019-01-28T14:32:38.874Z,37.27
2019-01-28T14:35:10.769Z,37.64
2019-01-28T14:37:41.507Z,37.16
2019-01-28T14:40:17.007Z,37.15
2019-01-28T14:42:48.757Z,36.98
2019-01-28T14:45:20.526Z,37.65
2019-01-28T14:47:52.778Z,37.54
2019-01-28T14:50:27.433Z,37.85
2019-01-28T14:52:59.310Z,38.25
2019-01-28T14:55:31.070Z,37.94
2019-01-28T14:58:02.771Z,37.73
2019-01-28T15:00:36.707Z,37.29
2019-01-28T15:03:07.465Z,37.76
2019-01-28T15:05:39.266Z,37.85
2019-01-28T15:08:11.310Z,38.41
2019-01-28T15:10:43.300Z,37.00
2019-01-28T15:13:15.061Z,36.64
2019-01-28T15:15:46.773Z,34.89
2019-01-28T15:18:17.627Z,34.38
2019-01-28T15:20:49.771Z,33.43
2019-01-28T15:23:20.470Z,33.43
2019-01-28T15:25:52.299Z,32.75
2019-01-28T15:28:23.832Z,32.80
2019-01-28T15:30:55.546Z,32.31
2019-01-28T15:33:27.366Z,31.41
2019-01-28T15:35:59.309Z,31.41
2019-01-28T15:38:30.853Z,30.87
2019-01-28T15:41:02.604Z,30.90
2019-01-28T15:43:34.269Z,30.85
2019-01-28T15:46:05.998Z,30.85
2019-01-28T15:48:37.737Z,30.63
2019-01-28T15:51:08.731Z,30.48
2019-01-28T15:53:39.486Z,30.91
2019-01-28T15:56:11.265Z,31.05
2019-01-28T15:58:42.849Z,31.18
2019-01-28T16:01:14.576Z,31.18
2019-01-28T16:03:46.298Z,31.46
2019-01-28T16:06:17.752Z,31.46
2019-01-28T16:08:48.480Z,32.10
2019-01-28T16:11:20.306Z,32.94
2019-01-28T16:13:51.722Z,32.94
2019-01-28T16:16:22.595Z,32.66
2019-01-28T16:18:54.746Z,34.02
2019-01-28T16:21:25.479Z,34.02
2019-01-28T16:23:57.260Z,33.77
2019-01-28T16:26:28.813Z,35.03
2019-01-28T16:29:00.506Z,33.74
2019-01-28T16:31:32.338Z,34.21
2019-01-28T16:34:03.874Z,35.54
2019-01-28T16:36:35.392Z,35.43
2019-01-28T16:39:10.810Z,34.71
2019-01-28T16:41:42.422Z,34.56
2019-01-28T16:44:14.269Z,35.64
2019-01-28T16:46:45.858Z,35.41
2019-01-28T16:49:17.800Z,35.62
2019-01-28T16:51:49.382Z,35.67
2019-01-28T16:54:21.062Z,36.63
2019-01-28T16:59:39.951Z,35.11
2019-01-28T17:02:11.720Z,36.09
2019-01-28T17:04:42.492Z,36.25
2019-01-28T17:07:14.314Z,35.76
2019-01-28T17:09:45.941Z,35.71
2019-01-28T17:12:17.781Z,34.65
2019-01-28T17:14:48.481Z,34.76
2019-01-28T17:17:20.310Z,33.97
2019-01-28T17:19:52.796Z,33.71
2019-01-28T17:22:24.570Z,34.18
2019-01-28T17:38:31.305Z,33.07
2019-01-28T17:41:02.861Z,33.60
2019-01-28T17:43:34.839Z,33.98
2019-01-28T17:46:06.755Z,34.79
2019-01-28T17:48:37.499Z,35.25
2019-01-28T17:51:09.317Z,35.13
2019-01-28T17:53:40.876Z,34.58
2019-01-28T17:56:12.902Z,35.63
2019-01-28T17:58:44.752Z,35.92
2019-01-28T18:01:15.480Z,36.00
2019-01-28T18:03:47.306Z,35.98
2019-01-28T18:06:19.535Z,37.51
2019-01-28T18:08:51.741Z,37.48
2019-01-28T18:11:22.777Z,36.51
2019-01-28T18:13:54.749Z,36.78
2019-01-28T18:16:25.631Z,36.90
2019-01-28T18:18:57.622Z,36.89
2019-01-28T18:21:29.545Z,37.13
2019-01-28T18:24:01.260Z,37.13
2019-01-28T18:26:33.259Z,37.84
2019-01-28T18:29:05.337Z,37.89
2019-01-28T18:31:37.381Z,37.97
2019-01-28T18:34:09.298Z,37.47
2019-01-28T18:36:41.066Z,37.62
2019-01-28T18:39:14.737Z,37.84
2019-01-28T18:41:45.453Z,37.78
2019-01-28T18:44:17.298Z,37.63
2019-01-28T18:46:49.689Z,37.90
2019-01-28T18:49:20.443Z,37.72
2019-01-28T18:51:52.298Z,37.09
2019-01-28T18:54:23.863Z,38.12
2019-01-28T18:56:55.404Z,37.79
2019-01-28T18:59:27.048Z,37.59
2019-01-28T19:01:58.757Z,38.11
2019-01-28T19:04:29.444Z,37.50
2019-01-28T19:07:38.061Z,38.08
2019-01-28T19:10:20.762Z,37.44
2019-01-28T19:13:17.457Z,38.43
2019-01-28T19:15:57.463Z,38.50
2019-01-28T19:18:34.381Z,38.17
2019-01-28T19:21:13.995Z,38.09
2019-01-28T19:23:45.769Z,38.26
2019-01-28T19:26:17.775Z,37.30
2019-01-28T19:28:48.631Z,36.37
2019-01-28T19:31:20.061Z,35.98
2019-01-28T19:34:50.665Z,35.55
2019-01-28T19:37:22.746Z,33.32
2019-01-28T19:39:53.433Z,33.32
2019-01-28T19:42:25.650Z,33.11
2019-01-28T19:44:57.441Z,32.90
2019-01-28T19:47:29.436Z,32.90
2019-01-28T19:50:01.328Z,33.04
2019-01-28T19:52:33.111Z,32.94
2019-01-28T19:55:06.336Z,33.10
2019-01-28T19:57:39.076Z,33.32
2019-01-28T20:00:26.409Z,33.47
2019-01-28T20:03:01.749Z,33.69
2019-01-28T20:05:32.518Z,34.43
2019-01-28T20:08:04.717Z,33.82
2019-01-28T20:23:14.386Z,35.45
2019-01-28T20:25:46.313Z,35.45
2019-01-28T20:28:17.875Z,36.04
2019-01-28T20:30:49.712Z,35.60
2019-01-28T20:33:20.467Z,35.76
2019-01-28T20:35:52.293Z,37.05
2019-01-28T20:38:23.844Z,37.01
2019-01-28T20:40:55.328Z,36.84
2019-01-28T20:43:27.326Z,37.81
2019-01-28T20:45:59.316Z,37.67
2019-01-28T20:48:30.842Z,37.89
2019-01-28T20:51:02.813Z,37.30
2019-01-28T20:53:34.750Z,37.07
2019-01-28T20:56:05.470Z,37.21
2019-01-28T20:58:37.285Z,37.83
2019-01-28T21:01:08.841Z,37.84
2019-01-28T21:03:40.739Z,38.01
2019-01-28T21:06:11.636Z,38.04
2019-01-28T21:08:43.673Z,37.29
2019-01-28T21:11:15.140Z,38.31
2019-01-28T21:13:46.868Z,38.21
2019-01-28T21:16:19.803Z,38.18
2019-01-28T21:18:51.744Z,38.35
2019-01-28T21:21:23.378Z,38.36
2019-01-28T21:23:55.048Z,38.68
2019-01-28T21:26:26.845Z,37.99
2019-01-28T21:28:58.770Z,38.52
2019-01-28T21:31:29.458Z,38.46
2019-01-28T21:34:01.292Z,38.57
2019-01-28T21:36:58.121Z,38.36
2019-01-28T21:39:29.782Z,38.54
2019-01-28T21:42:01.769Z,38.81
2019-01-28T21:44:32.619Z,38.31
2019-01-28T21:47:05.068Z,38.71
2019-01-28T21:49:36.757Z,38.71
2019-01-28T21:52:07.629Z,38.18
2019-01-28T21:54:39.374Z,38.73
2019-01-28T21:57:11.748Z,38.73
2019-01-28T21:59:43.387Z,38.80
2019-01-28T22:02:15.299Z,39.00
2019-01-28T22:04:46.836Z,38.52
2019-01-28T22:07:19.060Z,38.55
2019-01-28T22:09:51.302Z,38.34
2019-01-28T22:12:22.952Z,38.19
2019-01-28T22:14:54.780Z,39.00
2019-01-28T22:17:25.743Z,38.30
2019-01-28T22:19:56.470Z,38.19
2019-01-28T22:22:28.887Z,38.58
2019-01-28T22:25:00.827Z,38.76
2019-01-28T22:27:32.414Z,38.88
2019-01-28T22:30:04.030Z,38.90
2019-01-28T22:32:35.799Z,38.90
2019-01-28T22:35:09.484Z,39.01
2019-01-28T22:37:41.297Z,39.01
2019-01-28T22:40:14.780Z,38.78
2019-01-28T22:42:45.443Z,38.86
2019-01-28T22:45:18.794Z,38.72
2019-01-28T22:47:50.491Z,39.11
2019-01-28T22:50:24.034Z,39.30
2019-01-28T22:52:55.904Z,38.60
2019-01-28T22:55:27.781Z,39.32
2019-01-28T22:57:58.447Z,38.82
2019-01-28T23:00:50.437Z,39.21
2019-01-28T23:03:29.301Z,38.52
2019-01-28T23:06:01.310Z,38.96
2019-01-28T23:08:33.054Z,38.75
2019-01-28T23:11:04.711Z,39.00
2019-01-28T23:13:37.017Z,39.09
2019-01-28T23:16:08.737Z,38.85
2019-01-28T23:18:39.625Z,38.80
2019-01-28T23:21:11.605Z,38.48
2019-01-28T23:23:43.723Z,38.20
2019-01-28T23:26:14.463Z,38.20
2019-01-28T23:28:46.305Z,38.71
2019-01-28T23:31:17.826Z,38.73
2019-01-28T23:33:50.089Z,38.18
2019-01-28T23:36:21.782Z,38.66
2019-01-28T23:38:52.495Z,38.99
2019-01-28T23:41:24.305Z,39.28
2019-01-28T23:43:55.830Z,38.76
2019-01-28T23:46:27.782Z,38.85
2019-01-28T23:48:59.373Z,39.20
2019-01-28T23:51:31.074Z,39.20
2019-01-28T23:54:02.791Z,38.69
2019-01-28T23:56:33.802Z,39.60
2019-01-28T23:59:05.575Z,38.82
